Time;durP1;ratioP1;P1;durP2;ratioP2;P2;SDS_P1;SDS_P2;PMS_P1;PMS_P2;Temp;Humidity;BMP_temperature;BMP_pressure;BME280_temperature;BME280_humidity;BME280_pressure;Samples;Min_cycle;Max_cycle;Signal;HPM_P1;HPM_P2
2022/11/04 00:00:30;;;;;;;15.13;11.37;;;;;;;11.14;100.00;97930.91;5030935;28;20201;-81
2022/11/04 00:02:59;;;;;;;16.10;10.80;;;;;;;11.18;100.00;97943.75;5048411;28;20199;-81
2022/11/04 00:05:29;;;;;;;15.70;11.13;;;;;;;11.20;100.00;97943.66;5078257;28;20209;-80
2022/11/04 00:13:30;;;;;;;10.80;8.10;;;;;;;11.31;100.00;97945.38;5115442;28;20244;-81
2022/11/04 00:18:47;;;;;;;10.10;7.13;;;;;;;11.24;100.00;97942.41;5050313;28;20223;-81
2022/11/04 00:29:38;;;;;;;7.20;5.43;;;;;;;11.27;100.00;97957.19;4974864;28;20265;-81
2022/11/04 00:34:52;;;;;;;9.43;5.53;;;;;;;11.31;100.00;97967.41;4990975;28;20230;-81
2022/11/04 00:37:23;;;;;;;7.20;5.20;;;;;;;11.28;100.00;97978.25;4985166;28;20647;-80
2022/11/04 00:39:52;;;;;;;7.90;4.93;;;;;;;11.14;100.00;97983.91;4967178;28;20193;-80
2022/11/04 00:42:21;;;;;;;8.60;4.80;;;;;;;11.24;100.00;97986.63;4993454;28;20195;-80
2022/11/04 00:44:49;;;;;;;6.40;4.33;;;;;;;11.13;100.00;97967.19;4988139;28;20199;-81
2022/11/04 00:47:23;;;;;;;7.70;3.60;;;;;;;11.21;100.00;97968.34;4950466;29;20254;-80
2022/11/04 00:49:53;;;;;;;5.17;3.17;;;;;;;11.22;100.00;97965.56;4950444;29;20235;-81
2022/11/04 00:52:24;;;;;;;4.57;3.20;;;;;;;11.24;100.00;97963.59;4950024;29;20243;-81
2022/11/04 00:54:53;;;;;;;5.50;2.80;;;;;;;11.23;100.00;97961.09;4947286;29;20224;-81
2022/11/04 00:57:24;;;;;;;3.33;2.50;;;;;;;11.27;100.00;97954.53;4903369;29;20232;-80
2022/11/04 00:59:52;;;;;;;3.37;2.33;;;;;;;11.45;100.00;97948.47;4974411;28;20204;-80
2022/11/04 01:02:23;;;;;;;3.07;2.33;;;;;;;11.43;100.00;97939.84;4971111;28;20199;-80
2022/11/04 01:04:52;;;;;;;4.00;2.50;;;;;;;11.36;100.00;97936.03;4978902;28;20258;-80
2022/11/04 01:07:23;;;;;;;3.37;2.33;;;;;;;11.37;100.00;97928.91;5008619;28;20229;-80
2022/11/04 01:09:53;;;;;;;2.37;2.10;;;;;;;11.42;100.00;97924.06;5012587;28;20261;-81
2022/11/04 01:12:22;;;;;;;4.43;2.30;;;;;;;11.41;100.00;97920.56;5006572;28;20205;-81
2022/11/04 01:14:58;;;;;;;2.60;1.90;;;;;;;11.35;100.00;97933.50;5017149;28;20265;-81
2022/11/04 01:17:26;;;;;;;3.50;2.30;;;;;;;11.32;100.00;97918.72;5014691;28;20194;-80
2022/11/04 01:19:55;;;;;;;2.83;1.83;;;;;;;11.37;100.00;97921.78;5017889;28;20194;-80
2022/11/04 01:22:31;;;;;;;2.27;1.60;;;;;;;11.32;100.00;97924.03;5013512;28;20226;-81
2022/11/04 01:24:59;;;;;;;2.60;2.00;;;;;;;11.36;100.00;97922.78;5011016;28;20194;-81
2022/11/04 01:27:28;;;;;;;2.27;1.70;;;;;;;11.31;100.00;97927.66;5043431;28;20193;-81
2022/11/04 01:29:56;;;;;;;2.47;1.90;;;;;;;11.32;100.00;97933.78;5070552;28;20254;-81
2022/11/04 01:32:25;;;;;;;2.30;1.80;;;;;;;11.34;100.00;97940.63;4979507;28;20196;-81
2022/11/04 01:34:54;;;;;;;2.97;2.10;;;;;;;11.45;100.00;97937.88;4973254;28;20199;-81
2022/11/04 01:37:22;;;;;;;3.33;1.57;;;;;;;11.33;100.00;97936.31;4972194;28;20215;-81
2022/11/04 01:39:53;;;;;;;2.30;1.77;;;;;;;11.40;100.00;97942.75;4970255;28;20203;-80
2022/11/04 01:42:24;;;;;;;2.47;1.67;;;;;;;11.43;100.00;97947.78;4972970;28;20196;-81
2022/11/04 01:44:56;;;;;;;1.83;1.47;;;;;;;11.40;100.00;97947.22;4975936;28;20681;-81
2022/11/04 01:47:29;;;;;;;2.27;1.53;;;;;;;11.53;100.00;97939.88;5011809;28;20190;-81
2022/11/04 01:50:03;;;;;;;4.00;1.57;;;;;;;11.54;100.00;97938.91;5031217;28;20218;-81
2022/11/04 01:52:38;;;;;;;3.00;1.40;;;;;;;11.33;100.00;97957.50;5109602;28;20191;-81
2022/11/04 01:55:14;;;;;;;1.97;1.60;;;;;;;11.23;100.00;97959.28;5036807;28;20202;-81
2022/11/04 01:57:48;;;;;;;1.37;1.27;;;;;;;11.13;100.00;97966.34;4980121;28;20201;-80
2022/11/04 02:00:17;;;;;;;3.33;1.30;;;;;;;11.22;100.00;97973.50;5027941;28;20485;-81
2022/11/04 02:02:57;;;;;;;1.57;1.27;;;;;;;11.09;100.00;97972.84;5028728;28;20269;-81
2022/11/04 02:05:26;;;;;;;1.47;1.20;;;;;;;11.14;100.00;97979.44;5030228;28;20202;-81
2022/11/04 02:07:59;;;;;;;1.20;1.00;;;;;;;11.12;100.00;97983.22;5029888;28;20189;-81
2022/11/04 02:10:31;;;;;;;2.10;1.30;;;;;;;11.07;100.00;97982.75;5028897;28;20244;-80
2022/11/04 02:13:02;;;;;;;2.40;1.17;;;;;;;10.98;100.00;97970.28;5059696;28;20183;-81
2022/11/04 02:15:42;;;;;;;2.63;1.60;;;;;;;11.00;100.00;97965.69;5109570;28;20664;-80
2022/11/04 02:18:39;;;;;;;1.20;1.00;;;;;;;10.89;100.00;97967.44;5105355;28;20226;-80
2022/11/04 02:21:34;;;;;;;1.50;1.03;;;;;;;10.97;100.00;97966.78;5107190;28;20243;-80
2022/11/04 02:24:36;;;;;;;1.20;1.10;;;;;;;10.85;100.00;97968.66;5109775;28;20194;-81
2022/11/04 02:27:41;;;;;;;1.00;1.00;;;;;;;10.86;100.00;97965.06;5109912;28;20702;-81
2022/11/04 02:30:14;;;;;;;1.53;0.90;;;;;;;10.85;100.00;97962.53;5026808;28;20255;-81
2022/11/04 02:33:06;;;;;;;1.40;0.90;;;;;;;10.65;100.00;97974.81;5026993;28;20217;-81
2022/11/04 02:35:45;;;;;;;1.10;1.00;;;;;;;10.72;100.00;97962.75;5026984;28;20249;-81
2022/11/04 02:38:31;;;;;;;2.73;1.00;;;;;;;10.83;100.00;97965.31;5021303;28;20279;-81
2022/11/04 02:41:07;;;;;;;0.60;0.60;;;;;;;10.72;100.00;97967.19;5030900;28;20243;-81
2022/11/04 02:43:46;;;;;;;1.23;1.00;;;;;;;10.59;100.00;97954.13;5024289;28;20255;-81
2022/11/04 02:46:21;;;;;;;1.47;0.97;;;;;;;10.77;100.00;97960.53;5022956;28;20232;-81
2022/11/04 02:48:57;;;;;;;0.70;0.70;;;;;;;10.70;100.00;97961.16;5077199;28;20195;-80
2022/11/04 02:51:34;;;;;;;1.73;1.00;;;;;;;10.81;100.00;97956.66;5106958;28;20194;-82
2022/11/04 02:54:10;;;;;;;2.70;0.90;;;;;;;10.58;100.00;97949.78;5060120;28;20233;-81
2022/11/04 02:56:44;;;;;;;1.67;0.70;;;;;;;10.75;100.00;97948.38;5111299;28;20183;-81
2022/11/04 02:59:18;;;;;;;0.83;0.60;;;;;;;10.59;100.00;97962.06;5050476;28;20192;-81
2022/11/04 03:01:52;;;;;;;2.80;0.70;;;;;;;10.65;100.00;97960.72;5047014;28;20250;-81
2022/11/04 03:04:26;;;;;;;0.80;0.80;;;;;;;10.38;100.00;97969.13;5005579;28;20194;-81
2022/11/04 03:06:58;;;;;;;1.77;0.80;;;;;;;10.26;100.00;97971.00;5036039;28;20189;-81
2022/11/04 03:09:31;;;;;;;1.20;0.77;;;;;;;10.20;100.00;97977.59;4996926;28;20254;-80
2022/11/04 03:12:03;;;;;;;1.00;0.80;;;;;;;10.19;100.00;97975.91;4959362;28;20203;-80
2022/11/04 03:14:38;;;;;;;2.10;0.90;;;;;;;10.14;100.00;97986.03;4989564;28;20188;-80
2022/11/04 03:17:15;;;;;;;0.90;0.70;;;;;;;10.14;100.00;97979.91;5013301;28;20196;-80
2022/11/04 03:19:48;;;;;;;1.90;0.80;;;;;;;10.19;100.00;97997.06;5045442;28;20331;-80
2022/11/04 03:22:21;;;;;;;0.70;0.60;;;;;;;10.26;100.00;98000.09;5043082;28;20235;-80
2022/11/04 03:24:51;;;;;;;1.17;0.97;;;;;;;10.25;100.00;98004.56;5048223;28;20297;-79
2022/11/04 03:27:28;;;;;;;1.70;1.10;;;;;;;10.15;100.00;98014.16;5043899;28;20189;-80
2022/11/04 03:30:01;;;;;;;1.60;1.00;;;;;;;10.09;100.00;98012.00;5043072;28;20247;-80
2022/11/04 03:32:40;;;;;;;1.23;0.83;;;;;;;10.08;100.00;98018.25;5049953;28;20367;-80
2022/11/04 03:35:10;;;;;;;1.30;1.03;;;;;;;9.97;100.00;98010.34;5103866;28;20187;-80
2022/11/04 03:37:39;;;;;;;1.37;1.10;;;;;;;10.02;100.00;98019.59;5104357;28;20184;-80
2022/11/04 03:40:08;;;;;;;3.10;1.00;;;;;;;10.16;100.00;98004.44;5106438;28;20199;-80
2022/11/04 03:42:43;;;;;;;2.93;1.07;;;;;;;10.15;100.00;98008.88;5058957;28;20194;-80
2022/11/04 03:45:19;;;;;;;2.13;0.90;;;;;;;10.19;100.00;98012.94;5002416;28;20188;-80
2022/11/04 03:47:50;;;;;;;2.00;1.13;;;;;;;10.06;100.00;98014.06;5049491;28;20202;-81
2022/11/04 03:50:24;;;;;;;1.13;0.90;;;;;;;10.03;100.00;98010.69;5050166;28;20217;-80
2022/11/04 03:52:52;;;;;;;1.00;0.90;;;;;;;9.96;100.00;98027.19;5052261;28;20251;-81
2022/11/04 03:55:23;;;;;;;2.03;0.93;;;;;;;10.11;100.00;98031.25;5051145;28;20212;-81
2022/11/04 03:57:58;;;;;;;1.10;1.00;;;;;;;9.93;100.00;98046.75;5046190;28;20232;-80
2022/11/04 04:00:35;;;;;;;1.73;1.10;;;;;;;9.98;100.00;98057.00;5053401;28;20276;-80
2022/11/04 04:03:12;;;;;;;1.93;1.00;;;;;;;9.95;100.00;98054.59;5077739;28;20307;-80
2022/11/04 04:05:51;;;;;;;1.60;1.10;;;;;;;10.03;100.00;98038.94;5110884;28;20187;-80
2022/11/04 04:08:32;;;;;;;2.70;1.10;;;;;;;9.94;100.00;98050.25;5108236;28;20233;-80
2022/11/04 04:11:09;;;;;;;1.00;0.90;;;;;;;9.85;100.00;98053.66;5013218;28;20245;-79
2022/11/04 04:13:45;;;;;;;1.63;1.03;;;;;;;9.80;100.00;98055.81;5011587;28;20194;-81
2022/11/04 04:16:18;;;;;;;1.47;1.00;;;;;;;9.75;100.00;98059.66;5010514;28;20261;-80
2022/11/04 04:18:59;;;;;;;2.63;1.20;;;;;;;9.89;100.00;98073.59;5011945;28;20221;-80
2022/11/04 04:21:32;;;;;;;1.97;1.00;;;;;;;9.93;100.00;98073.22;4979951;28;20300;-81
2022/11/04 04:29:45;;;;;;;2.83;1.10;;;;;;;10.17;100.00;98080.19;5084418;28;20206;-80
2022/11/04 04:32:17;;;;;;;2.43;1.10;;;;;;;10.11;100.00;98076.22;5115613;28;20673;-80
2022/11/04 04:34:48;;;;;;;2.50;1.23;;;;;;;10.07;100.00;98093.31;5106055;28;20195;-79
2022/11/04 04:37:21;;;;;;;2.00;1.10;;;;;;;10.08;100.00;98088.84;5109184;28;20711;-80
2022/11/04 04:45:43;;;;;;;2.10;1.20;;;;;;;9.86;100.00;98081.78;5114352;28;20645;-80
2022/11/04 04:48:13;;;;;;;1.50;0.80;;;;;;;9.85;100.00;98064.22;5115422;28;20237;-81
2022/11/04 04:50:47;;;;;;;1.50;1.00;;;;;;;10.00;100.00;98053.25;5107924;28;20218;-80
2022/11/04 04:53:18;;;;;;;4.97;1.13;;;;;;;9.95;100.00;98062.53;5111280;28;20182;-80
2022/11/04 04:55:47;;;;;;;2.63;1.80;;;;;;;9.91;100.00;98072.50;5106017;28;20642;-81
2022/11/04 04:58:16;;;;;;;11.47;5.23;;;;;;;10.02;100.00;98071.66;5106906;28;20203;-80
2022/11/04 05:00:44;;;;;;;9.00;4.00;;;;;;;9.94;100.00;98069.63;5110685;28;20207;-81
2022/11/04 05:03:12;;;;;;;8.87;6.43;;;;;;;9.95;100.00;98073.13;5110373;28;20188;-81
2022/11/04 05:05:43;;;;;;;7.63;5.67;;;;;;;9.99;100.00;98067.47;5109045;28;20264;-81
2022/11/04 05:08:12;;;;;;;2.60;1.90;;;;;;;9.76;100.00;98065.78;5028459;28;20220;-80
2022/11/04 05:10:40;;;;;;;2.57;1.80;;;;;;;9.71;100.00;98058.19;5027780;28;20414;-81
2022/11/04 05:13:28;;;;;;;3.00;1.27;;;;;;;9.79;100.00;98067.34;5029696;28;20220;-80
2022/11/04 05:15:58;;;;;;;2.90;1.40;;;;;;;9.64;100.00;98061.44;5036940;28;20267;-81
2022/11/04 05:18:26;;;;;;;5.67;2.10;;;;;;;9.29;100.00;98061.53;5030735;28;20201;-80
2022/11/04 05:20:57;;;;;;;5.27;1.30;;;;;;;9.09;100.00;98053.31;5018654;28;20284;-80
2022/11/04 05:23:25;;;;;;;4.70;1.20;;;;;;;9.05;100.00;98072.13;4987448;28;20191;-80
2022/11/04 05:25:54;;;;;;;2.93;1.23;;;;;;;8.83;100.00;98071.13;4992562;28;20309;-80
2022/11/04 05:28:22;;;;;;;3.23;1.10;;;;;;;8.96;100.00;98078.94;4992742;28;20324;-80
2022/11/04 05:30:51;;;;;;;1.73;1.07;;;;;;;8.98;100.00;98100.84;4992461;28;20314;-80
2022/11/04 05:33:20;;;;;;;1.80;1.03;;;;;;;9.18;100.00;98091.41;4954339;28;20203;-81
2022/11/04 05:35:49;;;;;;;1.43;1.27;;;;;;;9.12;100.00;98087.41;4965085;28;20208;-80
2022/11/04 05:38:19;;;;;;;5.83;1.60;;;;;;;9.25;100.00;98100.53;4970490;28;20227;-81
2022/11/04 05:40:47;;;;;;;2.63;1.30;;;;;;;9.12;100.00;98097.97;4968110;28;20204;-80
2022/11/04 05:43:16;;;;;;;4.63;1.10;;;;;;;9.37;100.00;98093.50;4977093;28;20196;-80
2022/11/04 05:45:46;;;;;;;3.27;1.20;;;;;;;9.28;100.00;98088.91;4969391;28;20196;-80
2022/11/04 05:48:15;;;;;;;8.17;2.03;;;;;;;9.27;100.00;98087.22;4972729;28;20204;-80
2022/11/04 05:50:45;;;;;;;2.33;1.00;;;;;;;9.21;100.00;98096.44;4987570;28;20220;-80
2022/11/04 05:53:13;;;;;;;2.97;1.37;;;;;;;9.03;100.00;98093.38;5069957;28;20207;-79
2022/11/04 05:55:44;;;;;;;3.30;1.37;;;;;;;9.16;100.00;98096.78;5105091;28;20218;-80
2022/11/04 05:58:13;;;;;;;4.37;1.50;;;;;;;9.11;100.00;98092.81;5106704;28;20298;-80
2022/11/04 06:00:42;;;;;;;3.37;1.77;;;;;;;9.16;100.00;98091.50;5113902;28;20187;-81
2022/11/04 06:03:10;;;;;;;3.17;1.90;;;;;;;9.19;100.00;98095.72;5102400;28;20256;-80
2022/11/04 06:05:43;;;;;;;2.97;1.70;;;;;;;9.14;100.00;98082.00;5104957;28;20211;-81
2022/11/04 06:08:11;;;;;;;4.60;1.60;;;;;;;9.05;100.00;98083.53;5105325;28;20281;-80
2022/11/04 06:10:47;;;;;;;2.57;1.73;;;;;;;9.00;100.00;98085.72;5109118;28;20245;-80
2022/11/04 06:13:16;;;;;;;3.47;1.93;;;;;;;8.88;100.00;98082.19;5113666;28;20642;-80
2022/11/04 06:15:44;;;;;;;5.93;1.70;;;;;;;8.83;100.00;98084.31;5106831;28;20257;-80
2022/11/04 06:18:14;;;;;;;4.83;1.63;;;;;;;8.95;100.00;98081.72;5103523;28;20218;-80
2022/11/04 06:20:42;;;;;;;2.57;1.40;;;;;;;9.01;100.00;98095.31;5103718;28;20256;-80
2022/11/04 06:23:11;;;;;;;4.30;1.73;;;;;;;9.00;100.00;98092.78;5109250;28;20202;-80
2022/11/04 06:25:39;;;;;;;2.33;1.40;;;;;;;8.99;100.00;98093.75;5107880;28;20248;-80
2022/11/04 06:28:09;;;;;;;2.63;1.30;;;;;;;8.83;100.00;98091.41;5103777;28;20226;-80
2022/11/04 06:30:38;;;;;;;4.23;2.10;;;;;;;8.79;100.00;98080.22;5105577;28;20218;-80
2022/11/04 06:33:07;;;;;;;6.70;2.50;;;;;;;8.96;100.00;98086.88;5104601;28;20195;-81
2022/11/04 06:35:36;;;;;;;3.37;1.90;;;;;;;8.69;100.00;98095.06;5106705;28;20198;-80
2022/11/04 06:38:04;;;;;;;2.60;1.73;;;;;;;8.82;100.00;98090.56;5107476;28;20222;-80
2022/11/04 06:40:35;;;;;;;5.50;1.80;;;;;;;8.78;100.00;98090.88;5108150;28;20206;-81
2022/11/04 06:43:04;;;;;;;3.30;2.07;;;;;;;8.80;100.00;98092.47;5106054;28;20191;-80
2022/11/04 06:45:34;;;;;;;8.83;2.40;;;;;;;8.89;100.00;98097.06;5107785;28;20246;-80
2022/11/04 06:48:04;;;;;;;10.13;4.17;;;;;;;8.82;100.00;98106.41;5113568;28;20199;-80
2022/11/04 06:50:33;;;;;;;7.17;3.20;;;;;;;8.72;100.00;98109.81;5107722;28;20219;-81
2022/11/04 06:53:01;;;;;;;3.43;2.00;;;;;;;8.75;100.00;98114.88;5107589;28;20517;-80
2022/11/04 06:55:29;;;;;;;2.17;1.60;;;;;;;8.58;100.00;98118.72;5107924;28;20244;-81
2022/11/04 06:57:58;;;;;;;2.20;1.50;;;;;;;8.65;100.00;98127.06;5108876;28;20194;-81
2022/11/04 07:00:26;;;;;;;3.53;1.90;;;;;;;8.63;100.00;98126.34;5059077;28;20252;-80
2022/11/04 07:02:57;;;;;;;4.97;2.20;;;;;;;8.71;100.00;98127.47;5105406;28;20209;-80
2022/11/04 07:05:26;;;;;;;3.50;2.70;;;;;;;8.69;100.00;98139.94;5102802;28;20425;-80
2022/11/04 07:07:55;;;;;;;3.83;3.30;;;;;;;8.68;100.00;98145.31;5026736;28;20217;-80
2022/11/04 07:10:24;;;;;;;5.47;3.13;;;;;;;8.59;100.00;98149.47;5027976;28;20198;-80
2022/11/04 07:12:53;;;;;;;3.33;2.20;;;;;;;8.48;100.00;98154.66;4968908;28;20220;-80
2022/11/04 07:15:23;;;;;;;3.27;2.63;;;;;;;8.71;100.00;98160.94;4964351;28;20746;-80
2022/11/04 07:18:00;;;;;;;5.63;2.90;;;;;;;8.66;100.00;98171.81;4969705;28;20192;-80
2022/11/04 07:20:28;;;;;;;4.30;3.60;;;;;;;8.73;100.00;98166.94;4972557;28;20204;-81
2022/11/04 07:22:57;;;;;;;5.97;3.07;;;;;;;8.70;100.00;98173.28;4973175;28;20270;-80
2022/11/04 07:25:25;;;;;;;6.17;3.90;;;;;;;8.68;100.00;98185.72;4973390;28;20266;-80
2022/11/04 07:27:54;;;;;;;6.30;3.20;;;;;;;8.70;100.00;98190.94;4972975;28;20667;-81
2022/11/04 07:30:28;;;;;;;4.33;3.00;;;;;;;8.65;100.00;98191.25;4972241;28;20219;-81
2022/11/04 07:32:57;;;;;;;4.33;3.30;;;;;;;8.68;100.00;98192.81;4990900;28;20221;-81
2022/11/04 07:35:28;;;;;;;4.50;3.10;;;;;;;8.71;100.00;98206.66;5051383;28;20247;-81
2022/11/04 07:37:56;;;;;;;4.17;3.30;;;;;;;8.64;100.00;98194.84;5091079;28;20187;-81
2022/11/04 07:40:25;;;;;;;8.00;3.80;;;;;;;8.62;100.00;98195.91;5033873;28;20201;-80
2022/11/04 07:42:54;;;;;;;6.70;5.97;;;;;;;8.78;100.00;98207.91;5024672;28;20208;-81
2022/11/04 07:45:22;;;;;;;6.73;4.00;;;;;;;8.89;100.00;98210.63;5033918;28;20197;-80
2022/11/04 07:47:50;;;;;;;6.60;4.20;;;;;;;8.90;100.00;98206.19;5033926;28;20193;-81
2022/11/04 07:50:20;;;;;;;6.23;3.40;;;;;;;9.05;100.00;98212.97;5028039;28;20194;-81
2022/11/04 07:52:49;;;;;;;5.77;3.83;;;;;;;9.08;100.00;98220.69;5022343;28;20225;-80
2022/11/04 07:55:18;;;;;;;10.30;4.57;;;;;;;9.01;100.00;98211.50;5023976;28;20221;-80
2022/11/04 07:57:48;;;;;;;3.77;3.40;;;;;;;9.06;100.00;98217.28;5044489;28;20650;-80
2022/11/04 08:00:17;;;;;;;10.77;3.47;;;;;;;9.10;100.00;98215.28;5118320;28;20199;-80
2022/11/04 08:02:46;;;;;;;5.43;3.40;;;;;;;9.09;100.00;98222.38;5108159;28;20187;-81
2022/11/04 08:05:15;;;;;;;5.53;3.23;;;;;;;9.08;100.00;98215.41;5116224;28;20199;-80
2022/11/04 08:07:45;;;;;;;6.60;3.73;;;;;;;9.11;100.00;98223.09;5110484;28;20187;-80
2022/11/04 08:10:14;;;;;;;11.50;5.57;;;;;;;9.22;100.00;98234.66;5112258;28;20223;-80
2022/11/04 08:12:43;;;;;;;8.97;5.00;;;;;;;9.09;100.00;98230.28;5108049;28;20239;-81
2022/11/04 08:15:14;;;;;;;6.40;3.93;;;;;;;9.14;100.00;98232.59;5107525;28;20239;-80
2022/11/04 08:17:42;;;;;;;5.60;3.37;;;;;;;9.10;100.00;98237.25;5109886;28;20194;-81
2022/11/04 08:20:11;;;;;;;4.57;3.40;;;;;;;9.20;100.00;98236.59;5107519;28;20244;-80
2022/11/04 08:22:40;;;;;;;6.17;3.80;;;;;;;9.21;100.00;98230.34;5110096;28;20245;-80
2022/11/04 08:25:12;;;;;;;6.40;3.10;;;;;;;9.27;100.00;98229.91;5108911;28;20230;-81
2022/11/04 08:27:40;;;;;;;6.30;3.33;;;;;;;9.28;100.00;98223.66;5107135;28;20236;-80
2022/11/04 08:30:10;;;;;;;3.80;3.40;;;;;;;9.30;100.00;98227.03;5111970;28;20187;-80
2022/11/04 08:32:38;;;;;;;6.10;3.63;;;;;;;9.33;100.00;98226.78;5080388;28;20275;-80
2022/11/04 08:35:08;;;;;;;5.83;3.53;;;;;;;9.25;100.00;98224.72;5008459;28;20234;-80
2022/11/04 08:37:37;;;;;;;6.60;3.50;;;;;;;9.39;100.00;98231.63;5000919;28;20273;-80
2022/11/04 08:40:08;;;;;;;7.93;4.13;;;;;;;9.50;100.00;98236.13;5010201;28;20249;-80
2022/11/04 08:42:38;;;;;;;6.20;3.57;;;;;;;9.57;100.00;98232.91;5006486;28;20254;-80
2022/11/04 08:45:07;;;;;;;5.93;3.43;;;;;;;9.58;100.00;98226.66;5010252;28;20693;-80
2022/11/04 08:47:36;;;;;;;8.17;4.20;;;;;;;9.57;100.00;98226.78;4992684;28;20195;-81
2022/11/04 08:50:05;;;;;;;7.93;3.67;;;;;;;9.66;100.00;98226.94;4989555;28;20202;-81
2022/11/04 08:52:33;;;;;;;6.63;3.80;;;;;;;9.79;100.00;98229.50;5001427;28;20212;-80
2022/11/04 08:55:02;;;;;;;10.27;4.10;;;;;;;9.83;100.00;98230.94;5068555;28;20655;-80
2022/11/04 08:57:30;;;;;;;7.07;3.83;;;;;;;9.78;100.00;98232.25;5072293;28;20196;-81
2022/11/04 09:00:00;;;;;;;6.43;3.60;;;;;;;9.91;100.00;98231.19;5064879;28;20616;-80
2022/11/04 09:02:29;;;;;;;5.97;3.97;;;;;;;9.90;100.00;98229.50;5064917;28;20220;-80
2022/11/04 09:04:58;;;;;;;6.60;3.80;;;;;;;10.28;100.00;98228.41;5066880;28;20651;-80
2022/11/04 09:07:26;;;;;;;6.37;4.20;;;;;;;10.50;100.00;98230.22;5070891;28;20674;-80
2022/11/04 09:09:56;;;;;;;8.97;4.53;;;;;;;10.64;100.00;98221.19;5064966;28;20232;-80
2022/11/04 09:12:26;;;;;;;9.70;4.67;;;;;;;10.72;100.00;98211.69;5042841;28;20232;-80
2022/11/04 09:14:55;;;;;;;7.13;4.60;;;;;;;10.78;100.00;98208.53;5052625;28;20236;-80
2022/11/04 09:17:25;;;;;;;6.90;5.00;;;;;;;10.74;100.00;98208.91;5045103;28;20200;-79
2022/11/04 09:19:54;;;;;;;8.23;3.80;;;;;;;10.71;100.00;98202.06;5052457;28;20228;-79
2022/11/04 09:22:23;;;;;;;6.80;4.37;;;;;;;10.83;100.00;98198.41;5047919;28;20209;-80
2022/11/04 09:24:52;;;;;;;7.70;4.10;;;;;;;10.88;100.00;98198.88;5049384;28;20192;-80
2022/11/04 09:27:21;;;;;;;7.30;3.53;;;;;;;10.97;100.00;98199.94;5048388;28;20204;-80
2022/11/04 09:29:52;;;;;;;6.63;3.27;;;;;;;10.80;100.00;98209.22;5052007;28;20185;-80
2022/11/04 09:32:20;;;;;;;6.27;3.30;;;;;;;10.94;100.00;98215.25;5051855;28;20195;-80
2022/11/04 09:34:50;;;;;;;11.13;3.87;;;;;;;10.97;100.00;98205.22;5051670;28;20198;-79
2022/11/04 09:37:19;;;;;;;8.70;3.90;;;;;;;11.01;100.00;98209.34;5083159;28;20195;-80
2022/11/04 09:39:47;;;;;;;8.77;3.33;;;;;;;11.04;100.00;98208.22;5106339;28;20303;-80
2022/11/04 09:42:36;;;;;;;6.27;3.63;;;;;;;11.05;100.00;98210.75;5109165;28;20287;-80
2022/11/04 09:45:10;;;;;;;5.97;3.87;;;;;;;11.09;100.00;98209.53;5110374;28;20294;-79
2022/11/04 09:48:00;;;;;;;9.07;4.20;;;;;;;11.17;100.00;98217.69;5111001;28;20199;-79
2022/11/04 09:50:37;;;;;;;11.53;4.13;;;;;;;11.15;100.00;98213.50;5107906;28;20190;-79
2022/11/04 09:53:13;;;;;;;8.83;4.90;;;;;;;10.99;100.00;98200.66;5104638;28;20302;-80
2022/11/04 09:55:51;;;;;;;10.00;5.60;;;;;;;10.82;100.00;98198.53;5107902;28;20234;-80
2022/11/04 09:58:19;;;;;;;9.27;5.20;;;;;;;11.17;100.00;98203.59;5114041;28;20225;-80
2022/11/04 10:00:56;;;;;;;10.77;5.13;;;;;;;11.15;100.00;98209.03;5107334;28;20187;-79
2022/11/04 10:03:45;;;;;;;9.67;4.93;;;;;;;11.31;100.00;98205.16;5114034;28;20625;-80
2022/11/04 10:06:29;;;;;;;8.40;3.90;;;;;;;11.45;100.00;98204.84;5107919;28;20203;-80
2022/11/04 10:09:20;;;;;;;7.13;3.93;;;;;;;11.73;100.00;98204.22;5111927;28;20191;-79
2022/11/04 10:12:00;;;;;;;6.30;3.93;;;;;;;11.94;100.00;98200.75;5109424;28;20244;-79
2022/11/04 10:14:46;;;;;;;5.97;3.17;;;;;;;11.64;100.00;98191.72;5108952;28;20250;-80
2022/11/04 10:17:33;;;;;;;6.97;3.80;;;;;;;11.99;100.00;98187.94;5109657;28;20591;-80
2022/11/04 10:20:18;;;;;;;6.23;3.20;;;;;;;12.21;100.00;98186.94;5110642;28;20198;-80
2022/11/04 10:22:59;;;;;;;7.90;3.07;;;;;;;12.35;100.00;98175.09;5109876;28;20329;-80
2022/11/04 10:25:33;;;;;;;7.67;3.30;;;;;;;12.25;100.00;98175.91;5113407;28;20256;-80
2022/11/04 10:28:03;;;;;;;5.70;3.00;;;;;;;12.07;100.00;98172.22;5105557;28;20223;-80
2022/11/04 10:30:34;;;;;;;6.97;3.30;;;;;;;12.41;100.00;98166.63;5091343;28;20252;-80
2022/11/04 10:33:08;;;;;;;7.93;3.40;;;;;;;12.71;100.00;98161.25;5108681;28;20211;-80
2022/11/04 10:35:41;;;;;;;6.50;2.70;;;;;;;12.60;100.00;98158.72;5102496;28;20288;-80
2022/11/04 10:38:18;;;;;;;8.03;2.80;;;;;;;12.80;100.00;98156.94;5108254;28;20218;-81
2022/11/04 10:40:49;;;;;;;7.97;2.73;;;;;;;13.11;100.00;98155.03;5110476;28;20752;-81
2022/11/04 10:43:26;;;;;;;4.30;2.63;;;;;;;13.08;100.00;98156.16;5113441;28;20729;-80
2022/11/04 10:46:10;;;;;;;6.53;3.10;;;;;;;13.28;100.00;98151.72;5111041;28;20190;-80
2022/11/04 10:48:48;;;;;;;6.93;2.57;;;;;;;13.41;100.00;98139.00;5113537;28;20662;-80
2022/11/04 10:51:21;;;;;;;6.70;2.77;;;;;;;13.64;100.00;98128.03;5105536;28;20201;-80
2022/11/04 10:53:56;;;;;;;6.50;2.83;;;;;;;13.56;100.00;98127.91;5109787;28;20628;-80
2022/11/04 10:56:34;;;;;;;5.80;2.53;;;;;;;13.74;100.00;98128.84;5110453;28;20358;-80
2022/11/04 10:59:18;;;;;;;7.93;3.37;;;;;;;14.33;100.00;98131.16;5112664;28;20193;-80
2022/11/04 11:01:52;;;;;;;6.97;2.60;;;;;;;14.52;100.00;98122.28;5113153;28;20813;-80
2022/11/04 11:04:27;;;;;;;5.80;2.40;;;;;;;14.21;100.00;98118.19;5109178;28;20259;-81
2022/11/04 11:06:58;;;;;;;5.90;2.70;;;;;;;14.03;100.00;98118.94;5111716;28;20222;-80
2022/11/04 11:09:32;;;;;;;6.33;2.40;;;;;;;14.12;100.00;98119.91;5113893;28;20195;-80
2022/11/04 11:12:02;;;;;;;5.33;2.30;;;;;;;14.04;100.00;98114.47;5113427;28;20342;-80
2022/11/04 11:14:41;;;;;;;4.80;2.17;;;;;;;13.66;100.00;98124.22;5115727;28;20211;-80
2022/11/04 11:17:22;;;;;;;6.63;4.80;;;;;;;13.66;100.00;98128.72;5081583;28;20195;-80
2022/11/04 11:19:55;;;;;;;8.13;2.93;;;;;;;13.81;100.00;98132.63;5113120;28;20195;-80
2022/11/04 11:22:46;;;;;;;9.40;2.70;;;;;;;13.77;100.00;98125.88;5109867;28;20183;-80
2022/11/04 11:25:25;;;;;;;6.07;2.20;;;;;;;13.61;100.00;98121.19;5111549;28;20198;-80
2022/11/04 11:27:56;;;;;;;5.83;2.10;;;;;;;13.55;100.00;98123.56;5113865;28;20226;-80
2022/11/04 11:30:27;;;;;;;6.17;1.93;;;;;;;13.20;100.00;98124.13;5112788;28;20203;-80
2022/11/04 11:32:59;;;;;;;9.03;3.93;;;;;;;13.15;100.00;98128.03;5112462;28;20187;-80
2022/11/04 11:35:40;;;;;;;7.80;4.00;;;;;;;13.19;100.00;98131.28;5112875;28;20211;-80
2022/11/04 11:38:19;;;;;;;4.80;2.50;;;;;;;13.34;100.00;98135.19;5113064;28;20191;-80
2022/11/04 11:40:51;;;;;;;6.50;3.00;;;;;;;13.31;100.00;98131.97;5110128;28;20219;-81
2022/11/04 11:43:46;;;;;;;7.77;3.10;;;;;;;13.28;100.00;98134.91;5072986;28;20286;-80
2022/11/04 11:46:21;;;;;;;5.57;3.00;;;;;;;13.13;100.00;98129.16;5076348;28;20244;-80
2022/11/04 11:48:52;;;;;;;9.30;3.17;;;;;;;13.10;100.00;98130.25;5116609;28;20190;-80
2022/11/04 11:51:25;;;;;;;8.47;2.50;;;;;;;13.12;100.00;98135.44;5111706;28;20236;-80
2022/11/04 11:54:13;;;;;;;9.13;2.77;;;;;;;13.04;100.00;98136.16;5115977;28;20263;-80
2022/11/04 11:56:48;;;;;;;9.63;2.80;;;;;;;13.00;100.00;98137.38;5114904;28;20228;-80
2022/11/04 11:59:45;;;;;;;7.33;3.30;;;;;;;12.97;100.00;98139.50;5116022;28;20731;-80
2022/11/04 12:02:42;;;;;;;5.80;3.40;;;;;;;13.00;100.00;98147.19;5116153;28;20668;-80
2022/11/04 12:05:12;;;;;;;9.00;3.50;;;;;;;12.79;100.00;98144.63;5110135;28;20198;-80
2022/11/04 12:08:09;;;;;;;8.77;3.23;;;;;;;12.97;100.00;98137.66;5114749;28;20191;-80
2022/11/04 12:11:07;;;;;;;11.70;3.20;;;;;;;13.04;100.00;98138.81;5115738;28;20195;-80
2022/11/04 12:13:46;;;;;;;5.57;2.77;;;;;;;13.06;100.00;98144.81;5113966;28;20198;-80
2022/11/04 12:16:34;;;;;;;5.20;2.53;;;;;;;12.99;100.00;98134.88;5110054;28;20430;-80
2022/11/04 12:19:20;;;;;;;6.93;2.70;;;;;;;13.12;100.00;98125.66;5113728;28;20194;-80
2022/11/04 12:21:59;;;;;;;12.17;3.80;;;;;;;13.06;100.00;98136.84;5108175;28;20199;-80
2022/11/04 12:24:38;;;;;;;7.37;3.77;;;;;;;13.14;100.00;98126.34;5115726;28;20192;-80